Terminal Aerodrome Forecast
Issued by NWS

Home | Current Version | Previous Version | Graphics & Text | Print | Product List | Glossary On
Versions: 1 2 3 4 5 6 7 8 9 10 11 12 13 14 15 16 17 18
000
FTUS43 KABR 181600 AAA
TAFMBG
TAF AMD
KMBG 181606Z 1816/1912 13018G27KT P6SM SCT200
     FM181800 15025G35KT P6SM SCT200=

USA.gov is the U.S. government's official web portal to all federal, state and local government web resources and services.